Monarch Pass, CO

8:54 AM MDT on August 27, 2014 (GMT -0600)
Monarch Pass | Change Station
CLOSE
Current Station
Airport
Location: Monarch Pass,
Elevation: 12031 ft
Nearby Weather Stations

Elev 12031 ft 38.48 °N, 106.32 °W | Updated 18 minutes ago

Fog
Fog
37 °F
Feels Like 26 °F
N
23
Wind Variable Wind from West
Gusts 30 mph

Today
High -- | Low -- °F
--% Chance of Precip.
Yesterday
High -- | Low -- °F
Precip. -- in
6:30 AM 7:41 PM
Waxing Crescent, 4% visible
Pressure 30.67 in
Visibility 0.2 miles
Clouds Overcast 100 ft
Windchill 26 °F
Dew Point 37 °F
Humidity 100%
Rainfall 0.00 in
Snow Depth 0 in
UV 1 out of 12
Pollen 9.70 out of 12
Air Quality Not available.
Flu Activity Not available.
METAR KMYP 271436Z AUTO 26020G26KT M1/4SM FG OVC001 03/03 A3067 RMK AO2

More Conditions Fewer Conditions

Pressure 30.67 in
Visibility 0.2 miles
Clouds Overcast 100 ft
Windchill 26 °F
Dew Point 37 °F
Humidity 100%
Rainfall 0.00 in
Snow Depth 0 in
UV 1 out of 12
Pollen 9.70 out of 12
Air Quality Not available.
Flu Activity Not available.
METAR KMYP 271436Z AUTO 26020G26KT M1/4SM FG OVC001 03/03 A3067 RMK AO2

More Conditions Fewer Conditions

10-Day Weather Forecast

Almanac

Astronomy

Aug. 27, 2014 Rise Set
Actual Time 6:30 AM MDT 7:41 PM MDT
Civil Twilight 6:02 AM MDT 8:09 PM MDT
Nautical Twilight 5:29 AM MDT 8:41 PM MDT
Astronomical Twilight 4:55 AM MDT 9:15 PM MDT
Moon 8:26 AM MDT 8:38 PM MDT
Length of Visible Light 14h 06m
Length of Day
13h 11m
Tomorrow will be 2m 20s shorter.
Waxing Crescent, 4% of the Moon is Illuminated
Today
Waxing Crescent
Sep 2
First Quarter
Sep 8
Full
Sep 15
Last Quarter
Sep 24
New

Today's Extremes

State Highs State Lows

Community

WunderPhotos

Upload Photos

1,747,701 photos uploaded!

Nearby

Snow Depth

Station Depth Elevation
Porphyry Creek 0 in 10760 ft
Cochetopa Pass 0 in 10020 ft
South Colony 1 in 10800 ft
Park Cone 0 in 9600 ft
Rough And Tumble 1 in 10360 ft

Earthquake Activity

City Distance Mag. Time & Date
No recent earthquake activity has been reported nearby.
Minimum magnitude displayed is 2.5.

Coastal Water Temperatures

Place Temperature
No Stations Reporting

Nearby Weather Stations